sensor_id;sensor_type;location;lat;lon;timestamp;P1;durP1;ratioP1;P2;durP2;ratioP2
61356;SDS011;47227;46.752;23.576;2024-02-04T00:00:53;44.40;;;25.50;;
61356;SDS011;47227;46.752;23.576;2024-02-04T00:03:42;44.70;;;26.20;;
61356;SDS011;47227;46.752;23.576;2024-02-04T00:06:13;33.00;;;20.10;;
61356;SDS011;47227;46.752;23.576;2024-02-04T00:08:41;19.70;;;12.90;;
61356;SDS011;47227;46.752;23.576;2024-02-04T00:11:10;17.90;;;12.30;;
61356;SDS011;47227;46.752;23.576;2024-02-04T00:13:39;21.20;;;13.70;;
61356;SDS011;47227;46.752;23.576;2024-02-04T00:16:08;23.00;;;13.60;;
61356;SDS011;47227;46.752;23.576;2024-02-04T00:18:37;22.50;;;14.70;;
61356;SDS011;47227;46.752;23.576;2024-02-04T00:21:06;27.70;;;16.60;;
61356;SDS011;47227;46.752;23.576;2024-02-04T00:23:34;29.30;;;18.40;;
61356;SDS011;47227;46.752;23.576;2024-02-04T00:26:03;29.80;;;17.50;;
61356;SDS011;47227;46.752;23.576;2024-02-04T00:28:32;26.50;;;16.60;;
61356;SDS011;47227;46.752;23.576;2024-02-04T00:31:00;19.80;;;12.80;;
61356;SDS011;47227;46.752;23.576;2024-02-04T00:33:29;22.60;;;15.40;;
61356;SDS011;47227;46.752;23.576;2024-02-04T00:35:57;21.00;;;13.20;;
61356;SDS011;47227;46.752;23.576;2024-02-04T00:38:26;21.90;;;13.90;;
61356;SDS011;47227;46.752;23.576;2024-02-04T00:40:54;39.00;;;23.80;;
61356;SDS011;47227;46.752;23.576;2024-02-04T00:43:24;43.50;;;26.80;;
61356;SDS011;47227;46.752;23.576;2024-02-04T00:45:53;41.80;;;24.30;;
61356;SDS011;47227;46.752;23.576;2024-02-04T00:48:25;43.40;;;25.80;;
61356;SDS011;47227;46.752;23.576;2024-02-04T00:50:54;46.40;;;25.20;;
61356;SDS011;47227;46.752;23.576;2024-02-04T00:53:22;43.00;;;24.70;;
61356;SDS011;47227;46.752;23.576;2024-02-04T00:55:51;40.50;;;23.70;;
61356;SDS011;47227;46.752;23.576;2024-02-04T00:58:19;43.30;;;23.80;;
61356;SDS011;47227;46.752;23.576;2024-02-04T01:00:48;44.60;;;25.90;;
61356;SDS011;47227;46.752;23.576;2024-02-04T01:03:17;51.00;;;28.10;;
61356;SDS011;47227;46.752;23.576;2024-02-04T01:05:46;52.10;;;28.90;;
61356;SDS011;47227;46.752;23.576;2024-02-04T01:08:15;38.00;;;22.60;;
61356;SDS011;47227;46.752;23.576;2024-02-04T01:10:44;40.00;;;22.80;;
61356;SDS011;47227;46.752;23.576;2024-02-04T01:13:12;40.70;;;23.60;;
61356;SDS011;47227;46.752;23.576;2024-02-04T01:15:41;36.20;;;20.20;;
61356;SDS011;47227;46.752;23.576;2024-02-04T01:18:10;31.00;;;18.40;;
61356;SDS011;47227;46.752;23.576;2024-02-04T01:20:39;30.40;;;19.80;;
61356;SDS011;47227;46.752;23.576;2024-02-04T01:23:08;33.80;;;19.90;;
61356;SDS011;47227;46.752;23.576;2024-02-04T01:25:37;33.70;;;19.90;;
61356;SDS011;47227;46.752;23.576;2024-02-04T01:28:10;35.40;;;22.10;;
61356;SDS011;47227;46.752;23.576;2024-02-04T01:30:39;39.10;;;22.50;;
61356;SDS011;47227;46.752;23.576;2024-02-04T01:33:07;38.10;;;21.90;;
61356;SDS011;47227;46.752;23.576;2024-02-04T01:35:36;38.00;;;22.40;;
61356;SDS011;47227;46.752;23.576;2024-02-04T01:38:05;35.10;;;21.20;;
61356;SDS011;47227;46.752;23.576;2024-02-04T01:40:34;31.30;;;19.80;;
61356;SDS011;47227;46.752;23.576;2024-02-04T01:43:02;34.30;;;21.70;;
61356;SDS011;47227;46.752;23.576;2024-02-04T01:45:31;32.90;;;19.60;;
61356;SDS011;47227;46.752;23.576;2024-02-04T01:48:00;33.20;;;20.90;;
61356;SDS011;47227;46.752;23.576;2024-02-04T01:50:29;40.50;;;24.20;;
61356;SDS011;47227;46.752;23.576;2024-02-04T01:52:58;42.40;;;25.10;;
61356;SDS011;47227;46.752;23.576;2024-02-04T01:55:27;46.00;;;26.60;;
61356;SDS011;47227;46.752;23.576;2024-02-04T01:57:55;44.40;;;25.80;;
61356;SDS011;47227;46.752;23.576;2024-02-04T02:00:24;48.10;;;28.60;;
61356;SDS011;47227;46.752;23.576;2024-02-04T02:02:53;58.60;;;34.70;;
61356;SDS011;47227;46.752;23.576;2024-02-04T02:05:23;63.10;;;34.30;;
61356;SDS011;47227;46.752;23.576;2024-02-04T02:07:51;58.90;;;34.50;;
61356;SDS011;47227;46.752;23.576;2024-02-04T02:10:22;57.90;;;31.90;;
61356;SDS011;47227;46.752;23.576;2024-02-04T02:13:04;50.80;;;29.70;;
61356;SDS011;47227;46.752;23.576;2024-02-04T02:15:40;55.40;;;31.50;;
61356;SDS011;47227;46.752;23.576;2024-02-04T02:18:14;67.40;;;38.40;;
61356;SDS011;47227;46.752;23.576;2024-02-04T02:26:25;82.30;;;44.40;;
61356;SDS011;47227;46.752;23.576;2024-02-04T02:28:55;78.90;;;42.50;;
61356;SDS011;47227;46.752;23.576;2024-02-04T02:31:23;70.00;;;39.40;;
61356;SDS011;47227;46.752;23.576;2024-02-04T02:34:08;61.30;;;35.60;;
61356;SDS011;47227;46.752;23.576;2024-02-04T02:36:45;61.00;;;35.90;;
61356;SDS011;47227;46.752;23.576;2024-02-04T02:39:21;59.90;;;34.60;;
61356;SDS011;47227;46.752;23.576;2024-02-04T02:41:54;56.20;;;31.00;;
61356;SDS011;47227;46.752;23.576;2024-02-04T02:44:25;48.50;;;28.80;;
61356;SDS011;47227;46.752;23.576;2024-02-04T02:46:55;46.10;;;26.80;;
61356;SDS011;47227;46.752;23.576;2024-02-04T02:49:25;38.10;;;21.70;;
61356;SDS011;47227;46.752;23.576;2024-02-04T02:51:54;27.20;;;17.00;;
61356;SDS011;47227;46.752;23.576;2024-02-04T02:54:23;27.40;;;17.80;;
61356;SDS011;47227;46.752;23.576;2024-02-04T02:56:51;32.40;;;19.50;;
61356;SDS011;47227;46.752;23.576;2024-02-04T02:59:20;30.60;;;19.60;;
61356;SDS011;47227;46.752;23.576;2024-02-04T03:01:48;36.60;;;21.40;;
61356;SDS011;47227;46.752;23.576;2024-02-04T03:04:17;41.90;;;22.70;;
61356;SDS011;47227;46.752;23.576;2024-02-04T03:06:45;42.90;;;25.50;;
61356;SDS011;47227;46.752;23.576;2024-02-04T03:09:14;48.20;;;26.70;;
61356;SDS011;47227;46.752;23.576;2024-02-04T03:11:42;40.90;;;25.20;;
61356;SDS011;47227;46.752;23.576;2024-02-04T03:14:11;36.50;;;21.40;;
61356;SDS011;47227;46.752;23.576;2024-02-04T03:16:40;23.40;;;15.10;;
61356;SDS011;47227;46.752;23.576;2024-02-04T03:19:12;13.60;;;9.80;;
61356;SDS011;47227;46.752;23.576;2024-02-04T03:21:41;17.10;;;9.80;;
61356;SDS011;47227;46.752;23.576;2024-02-04T03:24:10;10.90;;;7.80;;
61356;SDS011;47227;46.752;23.576;2024-02-04T03:26:39;10.40;;;7.90;;
61356;SDS011;47227;46.752;23.576;2024-02-04T03:29:07;14.10;;;10.00;;
61356;SDS011;47227;46.752;23.576;2024-02-04T03:31:36;12.60;;;9.70;;
61356;SDS011;47227;46.752;23.576;2024-02-04T03:34:04;19.20;;;12.50;;
61356;SDS011;47227;46.752;23.576;2024-02-04T03:36:33;22.40;;;13.40;;
61356;SDS011;47227;46.752;23.576;2024-02-04T03:39:02;39.90;;;23.90;;
61356;SDS011;47227;46.752;23.576;2024-02-04T03:41:31;49.30;;;27.50;;
61356;SDS011;47227;46.752;23.576;2024-02-04T03:43:59;63.70;;;37.00;;
61356;SDS011;47227;46.752;23.576;2024-02-04T03:46:28;70.80;;;39.60;;
61356;SDS011;47227;46.752;23.576;2024-02-04T03:48:57;106.70;;;41.00;;
61356;SDS011;47227;46.752;23.576;2024-02-04T03:51:25;73.20;;;41.30;;
61356;SDS011;47227;46.752;23.576;2024-02-04T03:53:54;77.60;;;42.00;;
61356;SDS011;47227;46.752;23.576;2024-02-04T03:56:22;77.60;;;42.60;;
61356;SDS011;47227;46.752;23.576;2024-02-04T03:58:51;75.50;;;43.10;;
61356;SDS011;47227;46.752;23.576;2024-02-04T04:01:22;83.30;;;44.00;;
61356;SDS011;47227;46.752;23.576;2024-02-04T04:03:51;72.70;;;40.90;;
61356;SDS011;47227;46.752;23.576;2024-02-04T04:06:20;68.70;;;38.80;;
61356;SDS011;47227;46.752;23.576;2024-02-04T04:08:49;53.50;;;31.70;;
61356;SDS011;47227;46.752;23.576;2024-02-04T04:11:17;52.50;;;28.80;;
61356;SDS011;47227;46.752;23.576;2024-02-04T04:13:46;46.60;;;35.80;;
61356;SDS011;47227;46.752;23.576;2024-02-04T04:16:14;57.80;;;31.20;;
61356;SDS011;47227;46.752;23.576;2024-02-04T04:18:43;50.70;;;29.50;;
61356;SDS011;47227;46.752;23.576;2024-02-04T04:21:11;49.40;;;27.20;;
61356;SDS011;47227;46.752;23.576;2024-02-04T04:23:40;43.90;;;23.70;;
61356;SDS011;47227;46.752;23.576;2024-02-04T04:26:08;35.60;;;22.30;;
61356;SDS011;47227;46.752;23.576;2024-02-04T04:28:37;46.30;;;26.70;;
61356;SDS011;47227;46.752;23.576;2024-02-04T04:31:05;58.40;;;32.40;;
61356;SDS011;47227;46.752;23.576;2024-02-04T04:33:35;65.40;;;35.70;;
61356;SDS011;47227;46.752;23.576;2024-02-04T04:36:05;65.50;;;32.90;;
61356;SDS011;47227;46.752;23.576;2024-02-04T04:38:34;61.90;;;32.20;;
61356;SDS011;47227;46.752;23.576;2024-02-04T04:41:03;60.40;;;32.90;;
61356;SDS011;47227;46.752;23.576;2024-02-04T04:43:31;61.50;;;34.00;;
61356;SDS011;47227;46.752;23.576;2024-02-04T04:46:00;70.30;;;35.40;;
61356;SDS011;47227;46.752;23.576;2024-02-04T04:48:29;69.10;;;37.20;;
61356;SDS011;47227;46.752;23.576;2024-02-04T04:50:58;67.60;;;35.80;;
61356;SDS011;47227;46.752;23.576;2024-02-04T04:53:27;64.20;;;35.30;;
61356;SDS011;47227;46.752;23.576;2024-02-04T04:55:55;64.30;;;36.50;;
61356;SDS011;47227;46.752;23.576;2024-02-04T04:58:24;64.00;;;36.40;;
61356;SDS011;47227;46.752;23.576;2024-02-04T05:00:53;57.20;;;31.30;;
61356;SDS011;47227;46.752;23.576;2024-02-04T05:03:22;61.40;;;33.10;;
61356;SDS011;47227;46.752;23.576;2024-02-04T05:05:50;61.40;;;34.90;;
61356;SDS011;47227;46.752;23.576;2024-02-04T05:08:18;61.30;;;35.30;;
61356;SDS011;47227;46.752;23.576;2024-02-04T05:10:47;64.00;;;34.80;;
61356;SDS011;47227;46.752;23.576;2024-02-04T05:13:15;68.20;;;37.50;;
61356;SDS011;47227;46.752;23.576;2024-02-04T05:15:44;68.20;;;37.20;;
61356;SDS011;47227;46.752;23.576;2024-02-04T05:18:12;71.00;;;39.50;;
61356;SDS011;47227;46.752;23.576;2024-02-04T05:20:43;69.50;;;39.00;;
61356;SDS011;47227;46.752;23.576;2024-02-04T05:23:11;74.40;;;40.70;;
61356;SDS011;47227;46.752;23.576;2024-02-04T05:25:40;77.50;;;41.80;;
61356;SDS011;47227;46.752;23.576;2024-02-04T05:28:08;69.70;;;40.80;;
61356;SDS011;47227;46.752;23.576;2024-02-04T05:30:37;74.20;;;41.10;;
61356;SDS011;47227;46.752;23.576;2024-02-04T05:33:06;75.50;;;40.60;;
61356;SDS011;47227;46.752;23.576;2024-02-04T05:35:34;72.70;;;39.90;;
61356;SDS011;47227;46.752;23.576;2024-02-04T05:38:05;72.00;;;40.50;;
61356;SDS011;47227;46.752;23.576;2024-02-04T05:40:34;68.20;;;39.60;;
61356;SDS011;47227;46.752;23.576;2024-02-04T05:43:03;70.30;;;38.50;;
61356;SDS011;47227;46.752;23.576;2024-02-04T05:45:40;67.40;;;36.60;;
61356;SDS011;47227;46.752;23.576;2024-02-04T05:48:09;62.00;;;34.50;;
61356;SDS011;47227;46.752;23.576;2024-02-04T05:50:38;40.30;;;23.80;;
61356;SDS011;47227;46.752;23.576;2024-02-04T05:53:07;48.70;;;29.00;;
61356;SDS011;47227;46.752;23.576;2024-02-04T05:55:35;30.70;;;19.20;;
61356;SDS011;47227;46.752;23.576;2024-02-04T05:58:04;35.60;;;21.70;;
61356;SDS011;47227;46.752;23.576;2024-02-04T06:00:33;24.20;;;15.00;;
61356;SDS011;47227;46.752;23.576;2024-02-04T06:03:02;17.20;;;11.60;;
61356;SDS011;47227;46.752;23.576;2024-02-04T06:05:30;12.00;;;8.10;;
61356;SDS011;47227;46.752;23.576;2024-02-04T06:07:59;8.70;;;6.10;;
61356;SDS011;47227;46.752;23.576;2024-02-04T06:10:27;8.00;;;6.00;;
61356;SDS011;47227;46.752;23.576;2024-02-04T06:12:56;6.90;;;5.60;;
61356;SDS011;47227;46.752;23.576;2024-02-04T06:15:26;8.50;;;6.80;;
61356;SDS011;47227;46.752;23.576;2024-02-04T06:17:57;6.90;;;5.80;;
61356;SDS011;47227;46.752;23.576;2024-02-04T06:20:25;7.90;;;6.80;;
61356;SDS011;47227;46.752;23.576;2024-02-04T06:22:54;11.50;;;8.50;;
61356;SDS011;47227;46.752;23.576;2024-02-04T06:25:23;10.30;;;7.10;;
61356;SDS011;47227;46.752;23.576;2024-02-04T06:27:52;8.40;;;5.60;;
61356;SDS011;47227;46.752;23.576;2024-02-04T06:30:22;6.70;;;5.10;;
61356;SDS011;47227;46.752;23.576;2024-02-04T06:32:51;6.50;;;5.20;;
61356;SDS011;47227;46.752;23.576;2024-02-04T06:35:19;6.60;;;5.70;;
61356;SDS011;47227;46.752;23.576;2024-02-04T06:37:48;7.00;;;5.90;;
61356;SDS011;47227;46.752;23.576;2024-02-04T06:40:16;9.90;;;7.20;;
61356;SDS011;47227;46.752;23.576;2024-02-04T06:42:45;11.00;;;7.80;;
61356;SDS011;47227;46.752;23.576;2024-02-04T06:45:15;16.00;;;11.00;;
61356;SDS011;47227;46.752;23.576;2024-02-04T06:47:44;40.00;;;21.40;;
61356;SDS011;47227;46.752;23.576;2024-02-04T06:50:13;39.20;;;23.10;;
61356;SDS011;47227;46.752;23.576;2024-02-04T06:52:45;51.30;;;28.90;;
61356;SDS011;47227;46.752;23.576;2024-02-04T06:55:14;24.30;;;14.70;;
61356;SDS011;47227;46.752;23.576;2024-02-04T06:57:42;52.10;;;28.20;;
61356;SDS011;47227;46.752;23.576;2024-02-04T07:00:14;37.90;;;21.80;;
61356;SDS011;47227;46.752;23.576;2024-02-04T07:02:43;42.10;;;23.80;;
61356;SDS011;47227;46.752;23.576;2024-02-04T07:05:12;35.20;;;20.50;;
61356;SDS011;47227;46.752;23.576;2024-02-04T07:07:40;26.40;;;16.80;;
61356;SDS011;47227;46.752;23.576;2024-02-04T07:10:09;31.00;;;18.10;;
61356;SDS011;47227;46.752;23.576;2024-02-04T07:12:38;30.30;;;18.70;;
61356;SDS011;47227;46.752;23.576;2024-02-04T07:15:07;29.40;;;17.90;;
61356;SDS011;47227;46.752;23.576;2024-02-04T07:17:36;30.80;;;18.40;;
61356;SDS011;47227;46.752;23.576;2024-02-04T07:20:05;21.50;;;13.80;;
61356;SDS011;47227;46.752;23.576;2024-02-04T07:22:34;40.70;;;24.20;;
61356;SDS011;47227;46.752;23.576;2024-02-04T07:25:05;43.80;;;25.10;;
61356;SDS011;47227;46.752;23.576;2024-02-04T07:27:33;43.90;;;25.20;;
61356;SDS011;47227;46.752;23.576;2024-02-04T07:30:02;22.10;;;14.80;;
61356;SDS011;47227;46.752;23.576;2024-02-04T07:32:32;14.60;;;10.80;;
61356;SDS011;47227;46.752;23.576;2024-02-04T07:35:02;13.60;;;10.30;;
61356;SDS011;47227;46.752;23.576;2024-02-04T07:37:31;12.40;;;8.70;;
61356;SDS011;47227;46.752;23.576;2024-02-04T07:40:00;9.80;;;7.40;;
61356;SDS011;47227;46.752;23.576;2024-02-04T07:42:29;8.00;;;6.70;;
61356;SDS011;47227;46.752;23.576;2024-02-04T07:44:58;14.30;;;9.60;;
61356;SDS011;47227;46.752;23.576;2024-02-04T07:47:26;13.50;;;8.70;;
61356;SDS011;47227;46.752;23.576;2024-02-04T07:49:55;8.80;;;6.60;;
61356;SDS011;47227;46.752;23.576;2024-02-04T07:52:24;20.00;;;12.70;;
61356;SDS011;47227;46.752;23.576;2024-02-04T07:54:52;22.30;;;13.20;;
61356;SDS011;47227;46.752;23.576;2024-02-04T07:57:21;19.40;;;12.90;;
61356;SDS011;47227;46.752;23.576;2024-02-04T07:59:49;27.10;;;16.50;;
61356;SDS011;47227;46.752;23.576;2024-02-04T08:02:18;28.10;;;17.30;;
61356;SDS011;47227;46.752;23.576;2024-02-04T08:04:46;23.10;;;15.50;;
61356;SDS011;47227;46.752;23.576;2024-02-04T08:07:15;25.40;;;16.20;;
61356;SDS011;47227;46.752;23.576;2024-02-04T08:09:46;17.60;;;10.50;;
61356;SDS011;47227;46.752;23.576;2024-02-04T08:12:14;12.20;;;9.30;;
61356;SDS011;47227;46.752;23.576;2024-02-04T08:14:43;17.00;;;11.70;;
61356;SDS011;47227;46.752;23.576;2024-02-04T08:17:11;19.80;;;13.30;;
61356;SDS011;47227;46.752;23.576;2024-02-04T08:19:41;31.20;;;18.70;;
61356;SDS011;47227;46.752;23.576;2024-02-04T08:22:09;26.00;;;16.80;;
61356;SDS011;47227;46.752;23.576;2024-02-04T08:24:38;26.20;;;16.60;;
61356;SDS011;47227;46.752;23.576;2024-02-04T08:27:07;28.60;;;18.30;;
61356;SDS011;47227;46.752;23.576;2024-02-04T08:29:36;21.80;;;13.90;;
61356;SDS011;47227;46.752;23.576;2024-02-04T08:32:04;26.10;;;15.90;;
61356;SDS011;47227;46.752;23.576;2024-02-04T08:34:34;26.50;;;16.60;;
61356;SDS011;47227;46.752;23.576;2024-02-04T08:37:02;25.20;;;16.00;;
61356;SDS011;47227;46.752;23.576;2024-02-04T08:39:31;28.50;;;17.60;;
61356;SDS011;47227;46.752;23.576;2024-02-04T08:42:00;27.10;;;17.50;;
61356;SDS011;47227;46.752;23.576;2024-02-04T08:44:28;26.20;;;17.50;;
61356;SDS011;47227;46.752;23.576;2024-02-04T08:47:08;29.20;;;17.20;;
61356;SDS011;47227;46.752;23.576;2024-02-04T08:49:41;25.50;;;18.10;;
61356;SDS011;47227;46.752;23.576;2024-02-04T08:52:10;26.90;;;19.30;;
61356;SDS011;47227;46.752;23.576;2024-02-04T08:54:39;33.00;;;21.60;;
61356;SDS011;47227;46.752;23.576;2024-02-04T08:57:08;28.30;;;19.30;;
61356;SDS011;47227;46.752;23.576;2024-02-04T08:59:37;31.10;;;19.40;;
61356;SDS011;47227;46.752;23.576;2024-02-04T09:02:06;30.40;;;19.40;;
61356;SDS011;47227;46.752;23.576;2024-02-04T09:04:38;27.30;;;17.40;;
61356;SDS011;47227;46.752;23.576;2024-02-04T09:07:09;13.00;;;9.80;;
61356;SDS011;47227;46.752;23.576;2024-02-04T09:09:38;5.20;;;4.50;;
61356;SDS011;47227;46.752;23.576;2024-02-04T09:12:09;3.00;;;2.70;;
61356;SDS011;47227;46.752;23.576;2024-02-04T09:14:37;3.60;;;2.40;;
61356;SDS011;47227;46.752;23.576;2024-02-04T09:17:06;2.40;;;1.80;;
61356;SDS011;47227;46.752;23.576;2024-02-04T09:19:35;2.10;;;1.80;;
61356;SDS011;47227;46.752;23.576;2024-02-04T09:22:09;1.80;;;1.40;;
61356;SDS011;47227;46.752;23.576;2024-02-04T09:24:38;2.40;;;1.90;;
61356;SDS011;47227;46.752;23.576;2024-02-04T09:27:07;1.70;;;1.40;;
61356;SDS011;47227;46.752;23.576;2024-02-04T09:29:35;2.70;;;2.50;;
61356;SDS011;47227;46.752;23.576;2024-02-04T09:32:05;8.60;;;2.80;;
61356;SDS011;47227;46.752;23.576;2024-02-04T09:34:34;4.10;;;3.40;;
61356;SDS011;47227;46.752;23.576;2024-02-04T09:37:03;3.80;;;3.10;;
61356;SDS011;47227;46.752;23.576;2024-02-04T09:39:32;3.30;;;3.00;;
61356;SDS011;47227;46.752;23.576;2024-02-04T09:42:01;6.20;;;3.10;;
61356;SDS011;47227;46.752;23.576;2024-02-04T09:44:30;3.40;;;3.10;;
61356;SDS011;47227;46.752;23.576;2024-02-04T09:47:00;4.20;;;3.80;;
61356;SDS011;47227;46.752;23.576;2024-02-04T09:49:29;1.40;;;1.10;;
61356;SDS011;47227;46.752;23.576;2024-02-04T09:52:04;1.40;;;0.90;;
61356;SDS011;47227;46.752;23.576;2024-02-04T09:54:39;1.40;;;0.90;;
61356;SDS011;47227;46.752;23.576;2024-02-04T09:57:16;1.90;;;0.60;;
61356;SDS011;47227;46.752;23.576;2024-02-04T09:59:45;0.90;;;0.60;;
61356;SDS011;47227;46.752;23.576;2024-02-04T10:02:15;0.80;;;0.60;;
61356;SDS011;47227;46.752;23.576;2024-02-04T10:04:48;0.60;;;0.60;;
61356;SDS011;47227;46.752;23.576;2024-02-04T10:07:18;1.40;;;0.80;;
61356;SDS011;47227;46.752;23.576;2024-02-04T10:09:47;1.90;;;0.80;;
61356;SDS011;47227;46.752;23.576;2024-02-04T10:12:16;1.30;;;0.80;;
61356;SDS011;47227;46.752;23.576;2024-02-04T10:14:45;2.30;;;1.20;;
61356;SDS011;47227;46.752;23.576;2024-02-04T10:17:14;0.90;;;0.90;;
61356;SDS011;47227;46.752;23.576;2024-02-04T10:19:43;0.90;;;0.90;;
61356;SDS011;47227;46.752;23.576;2024-02-04T10:22:12;1.20;;;1.10;;
61356;SDS011;47227;46.752;23.576;2024-02-04T10:24:41;1.10;;;0.90;;
61356;SDS011;47227;46.752;23.576;2024-02-04T10:27:10;1.10;;;0.70;;
61356;SDS011;47227;46.752;23.576;2024-02-04T10:29:49;4.30;;;1.40;;
61356;SDS011;47227;46.752;23.576;2024-02-04T10:32:21;1.20;;;1.10;;
61356;SDS011;47227;46.752;23.576;2024-02-04T10:34:52;1.30;;;1.10;;
61356;SDS011;47227;46.752;23.576;2024-02-04T10:37:21;1.10;;;1.00;;
61356;SDS011;47227;46.752;23.576;2024-02-04T10:39:52;2.00;;;0.80;;
61356;SDS011;47227;46.752;23.576;2024-02-04T10:42:25;2.10;;;1.50;;
61356;SDS011;47227;46.752;23.576;2024-02-04T10:44:54;1.40;;;1.20;;
61356;SDS011;47227;46.752;23.576;2024-02-04T10:47:29;1.10;;;1.00;;
61356;SDS011;47227;46.752;23.576;2024-02-04T10:52:35;1.20;;;1.00;;
61356;SDS011;47227;46.752;23.576;2024-02-04T10:55:09;1.00;;;0.70;;
61356;SDS011;47227;46.752;23.576;2024-02-04T10:57:39;2.70;;;0.80;;
61356;SDS011;47227;46.752;23.576;2024-02-04T11:00:08;2.80;;;1.10;;
61356;SDS011;47227;46.752;23.576;2024-02-04T11:02:40;1.00;;;0.90;;
61356;SDS011;47227;46.752;23.576;2024-02-04T11:05:11;1.30;;;1.20;;
61356;SDS011;47227;46.752;23.576;2024-02-04T11:07:42;0.90;;;0.70;;
61356;SDS011;47227;46.752;23.576;2024-02-04T11:10:11;2.70;;;1.00;;
61356;SDS011;47227;46.752;23.576;2024-02-04T11:12:40;1.70;;;0.90;;
61356;SDS011;47227;46.752;23.576;2024-02-04T11:15:10;1.30;;;1.00;;
61356;SDS011;47227;46.752;23.576;2024-02-04T11:17:57;1.50;;;1.30;;
61356;SDS011;47227;46.752;23.576;2024-02-04T11:23:51;2.00;;;1.90;;
61356;SDS011;47227;46.752;23.576;2024-02-04T11:26:24;1.60;;;1.50;;
61356;SDS011;47227;46.752;23.576;2024-02-04T11:28:54;0.60;;;0.60;;
61356;SDS011;47227;46.752;23.576;2024-02-04T11:31:23;5.10;;;0.90;;
61356;SDS011;47227;46.752;23.576;2024-02-04T11:33:51;3.20;;;0.80;;
61356;SDS011;47227;46.752;23.576;2024-02-04T11:36:24;1.20;;;0.80;;
61356;SDS011;47227;46.752;23.576;2024-02-04T11:38:53;0.90;;;0.80;;
61356;SDS011;47227;46.752;23.576;2024-02-04T11:41:24;1.00;;;0.80;;
61356;SDS011;47227;46.752;23.576;2024-02-04T11:43:55;2.10;;;1.00;;
61356;SDS011;47227;46.752;23.576;2024-02-04T11:46:32;2.20;;;1.40;;
61356;SDS011;47227;46.752;23.576;2024-02-04T11:49:01;4.10;;;1.00;;
61356;SDS011;47227;46.752;23.576;2024-02-04T11:51:31;1.70;;;1.10;;
61356;SDS011;47227;46.752;23.576;2024-02-04T11:53:59;3.80;;;1.00;;
61356;SDS011;47227;46.752;23.576;2024-02-04T11:56:29;2.60;;;1.00;;
61356;SDS011;47227;46.752;23.576;2024-02-04T11:58:58;1.70;;;1.30;;
61356;SDS011;47227;46.752;23.576;2024-02-04T12:01:27;1.20;;;1.10;;
61356;SDS011;47227;46.752;23.576;2024-02-04T12:03:57;2.70;;;1.90;;
61356;SDS011;47227;46.752;23.576;2024-02-04T12:06:39;3.40;;;1.30;;
61356;SDS011;47227;46.752;23.576;2024-02-04T12:09:08;3.30;;;1.50;;
61356;SDS011;47227;46.752;23.576;2024-02-04T12:11:41;1.50;;;1.30;;
61356;SDS011;47227;46.752;23.576;2024-02-04T12:14:10;1.50;;;1.30;;
61356;SDS011;47227;46.752;23.576;2024-02-04T12:16:40;5.00;;;1.80;;
61356;SDS011;47227;46.752;23.576;2024-02-04T12:19:09;1.10;;;1.00;;
61356;SDS011;47227;46.752;23.576;2024-02-04T12:21:37;2.50;;;1.30;;
61356;SDS011;47227;46.752;23.576;2024-02-04T12:24:06;1.80;;;1.20;;
61356;SDS011;47227;46.752;23.576;2024-02-04T12:26:35;1.70;;;1.60;;
61356;SDS011;47227;46.752;23.576;2024-02-04T12:29:04;2.30;;;1.30;;
61356;SDS011;47227;46.752;23.576;2024-02-04T12:31:32;2.60;;;1.60;;
61356;SDS011;47227;46.752;23.576;2024-02-04T12:34:01;1.70;;;1.60;;
61356;SDS011;47227;46.752;23.576;2024-02-04T12:36:31;2.10;;;1.90;;
61356;SDS011;47227;46.752;23.576;2024-02-04T12:39:01;1.60;;;1.50;;
61356;SDS011;47227;46.752;23.576;2024-02-04T12:41:31;3.40;;;2.10;;
61356;SDS011;47227;46.752;23.576;2024-02-04T12:43:59;1.70;;;1.60;;
61356;SDS011;47227;46.752;23.576;2024-02-04T12:46:28;3.00;;;2.10;;
61356;SDS011;47227;46.752;23.576;2024-02-04T12:48:57;3.40;;;2.10;;
61356;SDS011;47227;46.752;23.576;2024-02-04T12:51:32;4.00;;;2.60;;
61356;SDS011;47227;46.752;23.576;2024-02-04T12:54:08;6.80;;;3.70;;
61356;SDS011;47227;46.752;23.576;2024-02-04T12:56:48;2.30;;;2.10;;
61356;SDS011;47227;46.752;23.576;2024-02-04T13:01:59;13.90;;;5.40;;
61356;SDS011;47227;46.752;23.576;2024-02-04T13:04:39;5.60;;;2.50;;
61356;SDS011;47227;46.752;23.576;2024-02-04T13:07:11;5.90;;;3.70;;
61356;SDS011;47227;46.752;23.576;2024-02-04T13:09:43;3.60;;;2.00;;
61356;SDS011;47227;46.752;23.576;2024-02-04T13:12:14;2.10;;;1.90;;
61356;SDS011;47227;46.752;23.576;2024-02-04T13:14:45;2.90;;;2.60;;
61356;SDS011;47227;46.752;23.576;2024-02-04T13:17:15;3.20;;;2.30;;
61356;SDS011;47227;46.752;23.576;2024-02-04T13:19:44;2.40;;;2.00;;
61356;SDS011;47227;46.752;23.576;2024-02-04T13:22:13;2.60;;;1.70;;
61356;SDS011;47227;46.752;23.576;2024-02-04T13:24:42;4.30;;;2.80;;
61356;SDS011;47227;46.752;23.576;2024-02-04T13:27:13;4.40;;;2.10;;
61356;SDS011;47227;46.752;23.576;2024-02-04T13:29:41;1.80;;;1.50;;
61356;SDS011;47227;46.752;23.576;2024-02-04T13:32:10;3.30;;;2.10;;
61356;SDS011;47227;46.752;23.576;2024-02-04T13:34:39;3.10;;;2.10;;
61356;SDS011;47227;46.752;23.576;2024-02-04T13:37:07;4.30;;;2.70;;
61356;SDS011;47227;46.752;23.576;2024-02-04T13:39:36;2.60;;;2.30;;
61356;SDS011;47227;46.752;23.576;2024-02-04T13:42:05;3.50;;;3.10;;
61356;SDS011;47227;46.752;23.576;2024-02-04T13:44:34;2.90;;;1.80;;
61356;SDS011;47227;46.752;23.576;2024-02-04T13:47:02;1.70;;;1.50;;
61356;SDS011;47227;46.752;23.576;2024-02-04T13:49:31;3.30;;;2.20;;
61356;SDS011;47227;46.752;23.576;2024-02-04T13:51:59;6.10;;;2.30;;
61356;SDS011;47227;46.752;23.576;2024-02-04T13:54:28;2.30;;;1.80;;
61356;SDS011;47227;46.752;23.576;2024-02-04T13:56:57;7.90;;;2.30;;
61356;SDS011;47227;46.752;23.576;2024-02-04T13:59:25;9.40;;;2.60;;
61356;SDS011;47227;46.752;23.576;2024-02-04T14:01:54;4.10;;;2.60;;
61356;SDS011;47227;46.752;23.576;2024-02-04T14:04:29;3.60;;;3.20;;
61356;SDS011;47227;46.752;23.576;2024-02-04T14:06:58;4.80;;;3.20;;
61356;SDS011;47227;46.752;23.576;2024-02-04T14:09:27;3.00;;;2.50;;
61356;SDS011;47227;46.752;23.576;2024-02-04T14:11:56;2.50;;;2.10;;
61356;SDS011;47227;46.752;23.576;2024-02-04T14:14:24;3.10;;;2.30;;
61356;SDS011;47227;46.752;23.576;2024-02-04T14:16:53;2.80;;;2.10;;
61356;SDS011;47227;46.752;23.576;2024-02-04T14:19:22;3.00;;;2.00;;
61356;SDS011;47227;46.752;23.576;2024-02-04T14:21:50;3.20;;;2.40;;
61356;SDS011;47227;46.752;23.576;2024-02-04T14:24:19;3.60;;;1.70;;
61356;SDS011;47227;46.752;23.576;2024-02-04T14:26:55;3.00;;;2.10;;
61356;SDS011;47227;46.752;23.576;2024-02-04T14:29:25;6.70;;;2.30;;
61356;SDS011;47227;46.752;23.576;2024-02-04T14:31:54;3.50;;;2.20;;
61356;SDS011;47227;46.752;23.576;2024-02-04T14:34:24;2.40;;;1.60;;
61356;SDS011;47227;46.752;23.576;2024-02-04T14:36:53;2.10;;;1.50;;
61356;SDS011;47227;46.752;23.576;2024-02-04T14:39:22;1.60;;;1.40;;
61356;SDS011;47227;46.752;23.576;2024-02-04T14:41:51;2.50;;;1.80;;
61356;SDS011;47227;46.752;23.576;2024-02-04T14:44:22;3.20;;;1.60;;
61356;SDS011;47227;46.752;23.576;2024-02-04T14:46:51;4.60;;;1.70;;
61356;SDS011;47227;46.752;23.576;2024-02-04T14:49:20;2.20;;;1.30;;